createdAt,value
2019-04-25T00:02:30.886Z,0.40
2019-04-25T00:05:01.329Z,0.40
2019-04-25T00:07:31.260Z,0.50
2019-04-25T00:10:01.618Z,0.40
2019-04-25T00:12:32.006Z,0.50
2019-04-25T00:15:01.428Z,0.50
2019-04-25T00:17:31.621Z,0.40
2019-04-25T00:20:01.642Z,0.63
2019-04-25T00:22:32.495Z,0.60
2019-04-25T00:25:18.001Z,0.60
2019-04-25T00:27:47.160Z,0.53
2019-04-25T00:30:15.941Z,0.70
2019-04-25T00:32:45.321Z,0.50
2019-04-25T00:35:13.992Z,0.50
2019-04-25T00:37:44.913Z,0.50
2019-04-25T00:40:13.573Z,0.37
2019-04-25T00:42:43.628Z,0.70
2019-04-25T00:45:14.089Z,0.50
2019-04-25T00:47:43.870Z,0.50
2019-04-25T00:50:13.389Z,0.60
2019-04-25T00:52:43.504Z,0.57
2019-04-25T00:55:14.341Z,0.60
2019-04-25T00:57:44.630Z,0.40
2019-04-25T01:00:21.840Z,0.60
2019-04-25T01:02:58.115Z,0.67
2019-04-25T01:05:26.823Z,0.50
2019-04-25T01:07:55.425Z,0.70
2019-04-25T01:10:24.230Z,0.47
2019-04-25T01:12:53.376Z,0.60
2019-04-25T01:15:23.474Z,0.50
2019-04-25T01:17:53.421Z,0.60
2019-04-25T01:20:23.845Z,0.50
2019-04-25T01:22:55.484Z,0.80
2019-04-25T01:25:23.410Z,0.60
2019-04-25T01:27:53.915Z,0.60
2019-04-25T01:30:24.499Z,0.90
2019-04-25T01:32:54.555Z,0.60
2019-04-25T01:35:25.174Z,0.60
2019-04-25T01:38:07.230Z,0.70
2019-04-25T01:40:43.906Z,0.80
2019-04-25T01:43:17.181Z,0.80
2019-04-25T01:45:45.995Z,0.60
2019-04-25T01:48:14.695Z,0.53
2019-04-25T01:50:43.973Z,0.67
2019-04-25T01:53:14.491Z,0.60
2019-04-25T01:55:53.843Z,0.60
2019-04-25T01:58:13.779Z,0.60
2019-04-25T02:00:44.985Z,0.70
2019-04-25T02:03:14.141Z,0.60
2019-04-25T02:05:43.866Z,0.80
2019-04-25T02:08:14.198Z,0.97
2019-04-25T02:10:44.573Z,0.73
2019-04-25T02:13:14.816Z,0.60
2019-04-25T02:15:43.662Z,0.87
2019-04-25T02:18:13.700Z,0.80
2019-04-25T02:20:43.692Z,0.80
2019-04-25T02:23:14.008Z,0.60
2019-04-25T02:25:44.288Z,1.00
2019-04-25T02:28:15.602Z,0.90
2019-04-25T02:30:45.322Z,0.80
2019-04-25T02:33:14.593Z,1.00
2019-04-25T02:35:46.570Z,0.83
2019-04-25T02:38:16.567Z,0.80
2019-04-25T02:40:45.447Z,0.90
2019-04-25T02:43:14.412Z,0.80
2019-04-25T02:45:47.497Z,0.80
2019-04-25T02:48:30.158Z,0.90
2019-04-25T02:51:01.214Z,0.70
2019-04-25T02:53:37.669Z,1.03
2019-04-25T02:56:26.209Z,1.00
2019-04-25T02:58:36.901Z,0.73
2019-04-25T03:01:18.018Z,1.00
2019-04-25T03:03:38.297Z,0.70
2019-04-25T03:06:09.388Z,0.97
2019-04-25T03:08:37.625Z,1.07
2019-04-25T03:11:08.099Z,1.00
2019-04-25T03:13:37.022Z,1.00
2019-04-25T03:16:08.950Z,0.87
2019-04-25T03:18:37.892Z,0.90
2019-04-25T03:21:13.420Z,1.20
2019-04-25T03:23:42.069Z,1.00
2019-04-25T03:26:09.167Z,1.00
2019-04-25T03:28:40.995Z,1.00
2019-04-25T03:31:17.527Z,0.90
2019-04-25T03:33:41.175Z,0.73
2019-04-25T03:36:09.891Z,1.03
2019-04-25T03:38:38.594Z,1.00
2019-04-25T03:41:07.224Z,0.90
2019-04-25T03:43:35.780Z,0.90
2019-04-25T03:46:05.876Z,0.90
2019-04-25T03:48:36.825Z,1.10
2019-04-25T03:51:05.842Z,0.90
2019-04-25T03:53:35.508Z,0.80
2019-04-25T03:56:05.981Z,0.70
2019-04-25T03:58:35.254Z,0.73
2019-04-25T04:01:06.926Z,0.80
2019-04-25T04:03:34.944Z,0.90
2019-04-25T04:06:05.920Z,0.90
2019-04-25T04:08:34.296Z,0.83
2019-04-25T04:11:06.021Z,0.70
2019-04-25T04:13:34.367Z,1.10
2019-04-25T04:16:03.387Z,0.80
2019-04-25T04:18:34.776Z,0.90
2019-04-25T04:21:07.765Z,0.90
2019-04-25T04:23:37.985Z,1.07
2019-04-25T04:26:07.410Z,1.30
2019-04-25T04:28:36.100Z,1.20
2019-04-25T04:31:04.734Z,0.90
2019-04-25T04:33:34.613Z,1.10
2019-04-25T04:36:03.866Z,0.90
2019-04-25T04:38:34.115Z,0.97
2019-04-25T04:41:03.973Z,1.10
2019-04-25T04:43:34.131Z,0.90
2019-04-25T04:46:03.990Z,1.40
2019-04-25T04:48:34.094Z,1.20
2019-04-25T04:51:03.412Z,1.03
2019-04-25T04:53:35.614Z,1.00
2019-04-25T04:56:04.175Z,0.90
2019-04-25T04:58:34.294Z,1.00
2019-04-25T05:01:03.689Z,1.10
2019-04-25T05:03:34.632Z,0.93
2019-04-25T05:06:15.008Z,1.10
2019-04-25T05:08:51.288Z,1.07
2019-04-25T05:11:19.948Z,0.97
2019-04-25T05:13:48.629Z,1.20
2019-04-25T05:16:17.726Z,1.20
2019-04-25T05:18:46.306Z,1.23
2019-04-25T05:21:15.784Z,1.00
2019-04-25T05:23:45.141Z,1.20
2019-04-25T05:26:15.951Z,1.17
2019-04-25T05:28:44.504Z,1.27
2019-04-25T05:31:25.524Z,1.30
2019-04-25T05:33:53.992Z,1.30
2019-04-25T05:36:24.905Z,1.03
2019-04-25T05:38:53.940Z,1.30
2019-04-25T05:41:30.258Z,1.03
2019-04-25T05:43:58.940Z,1.00
2019-04-25T05:46:27.518Z,1.30
2019-04-25T05:48:56.252Z,1.20
2019-04-25T05:51:25.916Z,1.13
2019-04-25T05:53:55.208Z,1.30
2019-04-25T05:56:26.877Z,1.30
2019-04-25T05:58:54.827Z,1.47
2019-04-25T06:01:24.983Z,1.30
2019-04-25T06:03:53.686Z,1.70
2019-04-25T06:06:23.654Z,1.67
2019-04-25T06:08:54.265Z,1.20
2019-04-25T06:11:36.282Z,1.20
2019-04-25T06:14:06.541Z,1.20
2019-04-25T06:16:35.092Z,1.07
2019-04-25T06:19:13.955Z,1.17
2019-04-25T06:21:38.654Z,1.33
2019-04-25T06:24:24.824Z,1.13
2019-04-25T06:27:01.015Z,1.30
2019-04-25T06:29:29.691Z,1.10
2019-04-25T06:32:05.639Z,1.37
2019-04-25T06:34:31.680Z,1.30
2019-04-25T06:36:58.795Z,1.17
2019-04-25T06:39:27.979Z,1.20
2019-04-25T06:41:56.547Z,1.10
2019-04-25T06:44:29.412Z,1.10
2019-04-25T06:47:08.176Z,1.43
2019-04-25T06:49:38.381Z,1.23
2019-04-25T06:52:07.224Z,1.47
2019-04-25T06:54:35.779Z,1.20
2019-04-25T06:57:04.598Z,1.43
2019-04-25T06:59:34.489Z,1.67
2019-04-25T07:02:04.212Z,1.70
2019-04-25T07:04:34.820Z,1.20
2019-04-25T07:07:10.562Z,1.60
2019-04-25T07:09:34.978Z,1.50
2019-04-25T07:12:04.178Z,1.50
2019-04-25T07:14:33.835Z,1.60
2019-04-25T07:17:04.335Z,1.80
2019-04-25T07:19:34.343Z,1.87
2019-04-25T07:22:03.925Z,1.53
2019-04-25T07:24:35.183Z,1.90
2019-04-25T07:27:10.596Z,1.70
2019-04-25T07:29:40.778Z,1.20
2019-04-25T07:32:14.483Z,2.10
2019-04-25T07:34:43.808Z,1.20
2019-04-25T07:37:13.290Z,1.33
2019-04-25T07:39:42.034Z,1.70
2019-04-25T07:42:10.656Z,1.00
2019-04-25T07:44:49.702Z,1.20
2019-04-25T07:47:09.590Z,1.03
2019-04-25T07:49:38.157Z,1.13
2019-04-25T07:52:06.906Z,1.10
2019-04-25T07:54:36.285Z,1.37
2019-04-25T07:57:05.868Z,0.93
2019-04-25T07:59:35.356Z,1.10
2019-04-25T08:02:05.026Z,1.10
2019-04-25T08:04:35.753Z,0.83
2019-04-25T08:07:04.193Z,1.33
2019-04-25T08:09:34.526Z,1.00
2019-04-25T08:12:03.345Z,1.07
2019-04-25T08:14:43.768Z,1.07
2019-04-25T08:17:15.062Z,0.87
2019-04-25T08:19:44.279Z,1.10
2019-04-25T08:22:14.074Z,0.70
2019-04-25T08:24:43.997Z,0.83
2019-04-25T08:27:13.324Z,0.67
2019-04-25T08:29:42.011Z,1.20
2019-04-25T08:32:10.667Z,0.80
2019-04-25T08:34:39.296Z,0.60
2019-04-25T08:37:17.611Z,0.80
2019-04-25T08:39:39.540Z,0.83
2019-04-25T08:42:08.303Z,0.60
2019-04-25T08:44:36.996Z,1.07
2019-04-25T08:47:05.597Z,0.80
2019-04-25T08:49:36.244Z,0.90
2019-04-25T08:52:05.167Z,0.80
2019-04-25T08:54:39.711Z,1.10
2019-04-25T08:57:07.319Z,0.90
2019-04-25T08:59:52.208Z,0.90
2019-04-25T09:02:27.549Z,0.60
2019-04-25T09:05:04.159Z,0.60
2019-04-25T09:07:35.430Z,0.63
2019-04-25T09:10:03.603Z,0.80
2019-04-25T09:12:35.202Z,0.70
2019-04-25T09:15:04.133Z,0.40
2019-04-25T09:17:35.472Z,0.50
2019-04-25T09:20:04.072Z,0.70
2019-04-25T09:22:35.041Z,0.50
2019-04-25T09:25:03.813Z,0.63
2019-04-25T09:27:34.346Z,0.80
2019-04-25T09:30:03.930Z,0.70
2019-04-25T09:32:33.813Z,0.60
2019-04-25T09:35:03.900Z,0.80
2019-04-25T09:37:33.582Z,0.70
2019-04-25T09:40:11.918Z,0.53
2019-04-25T09:42:41.521Z,0.50
2019-04-25T09:45:28.424Z,0.90
2019-04-25T09:47:58.716Z,0.70
2019-04-25T09:50:31.668Z,0.47
2019-04-25T09:53:00.348Z,1.03
2019-04-25T09:55:39.800Z,0.70
2019-04-25T09:58:18.988Z,0.87
2019-04-25T10:01:05.901Z,0.60
2019-04-25T10:03:34.542Z,0.50
2019-04-25T10:06:03.386Z,0.70
2019-04-25T10:08:32.040Z,0.60
2019-04-25T10:11:00.910Z,0.53
2019-04-25T10:13:29.774Z,0.73
2019-04-25T10:16:06.415Z,0.63
2019-04-25T10:18:35.525Z,0.60
2019-04-25T10:21:06.896Z,0.63
2019-04-25T10:23:35.890Z,0.80
2019-04-25T10:26:05.918Z,0.80
2019-04-25T10:28:34.814Z,0.90
2019-04-25T10:31:03.698Z,0.60
2019-04-25T10:33:32.342Z,0.80
2019-04-25T10:36:01.309Z,0.67
2019-04-25T10:38:30.710Z,0.70
2019-04-25T10:40:59.499Z,0.60
2019-04-25T10:43:28.139Z,0.70
2019-04-25T10:45:56.822Z,0.73
2019-04-25T10:48:25.528Z,0.60
2019-04-25T10:50:55.660Z,0.50
2019-04-25T10:53:25.215Z,0.63
2019-04-25T10:55:54.017Z,0.67
2019-04-25T10:58:22.810Z,0.90
2019-04-25T11:00:53.490Z,0.70
2019-04-25T11:03:36.057Z,0.73
2019-04-25T11:06:05.348Z,0.70
2019-04-25T11:08:34.270Z,0.97
2019-04-25T11:11:03.732Z,0.67
2019-04-25T11:13:33.795Z,0.67
2019-04-25T11:16:03.525Z,0.70
2019-04-25T11:18:33.876Z,0.90
2019-04-25T11:21:04.289Z,0.70
2019-04-25T11:23:33.323Z,0.70
2019-04-25T11:26:03.850Z,0.80
2019-04-25T11:28:33.823Z,1.07
2019-04-25T11:31:05.746Z,0.53
2019-04-25T11:33:35.258Z,0.60
2019-04-25T11:36:05.665Z,0.60
2019-04-25T11:38:54.562Z,1.20
2019-04-25T11:41:26.114Z,0.90
2019-04-25T11:43:55.665Z,0.93
2019-04-25T11:46:25.386Z,0.80
2019-04-25T11:48:54.820Z,0.77
2019-04-25T11:51:24.072Z,0.60
2019-04-25T11:53:54.264Z,0.77
2019-04-25T11:56:24.169Z,0.83
2019-04-25T11:58:54.209Z,0.50
2019-04-25T12:01:24.307Z,0.60
2019-04-25T12:03:54.876Z,0.80
2019-04-25T12:06:24.338Z,0.87
2019-04-25T12:08:54.235Z,0.90
2019-04-25T12:11:26.077Z,1.00
2019-04-25T12:13:55.386Z,0.70
2019-04-25T12:16:24.733Z,0.90
2019-04-25T12:19:02.296Z,0.73
2019-04-25T12:21:30.827Z,0.60
2019-04-25T12:24:01.725Z,0.80
2019-04-25T12:26:29.782Z,0.93
2019-04-25T12:28:58.365Z,0.90
2019-04-25T12:31:27.002Z,0.90
2019-04-25T12:33:56.413Z,0.97
2019-04-25T12:36:28.020Z,1.00
2019-04-25T12:38:56.379Z,0.70
2019-04-25T12:41:26.380Z,0.90
2019-04-25T12:43:56.700Z,0.73
2019-04-25T12:46:26.959Z,1.17
2019-04-25T12:48:55.529Z,0.80
2019-04-25T12:51:24.240Z,0.80
2019-04-25T12:53:54.691Z,0.87
2019-04-25T12:56:24.806Z,0.90
2019-04-25T12:58:53.862Z,0.70
2019-04-25T13:01:24.843Z,0.60
2019-04-25T13:03:54.356Z,0.80
2019-04-25T13:06:23.917Z,0.80
2019-04-25T13:08:54.276Z,0.77
2019-04-25T13:11:23.987Z,0.70
2019-04-25T13:13:52.705Z,1.20
2019-04-25T13:16:21.358Z,1.00
2019-04-25T13:18:50.227Z,0.93
2019-04-25T13:21:19.150Z,0.90
2019-04-25T13:23:47.878Z,1.00
2019-04-25T13:26:18.152Z,0.67
2019-04-25T13:28:48.747Z,0.80
2019-04-25T13:31:19.018Z,0.73
2019-04-25T13:33:55.147Z,1.03
2019-04-25T13:36:24.136Z,0.80
2019-04-25T13:38:53.991Z,0.60
2019-04-25T13:41:22.732Z,0.80
2019-04-25T13:43:53.095Z,0.60
2019-04-25T13:46:24.687Z,0.73
2019-04-25T13:48:51.923Z,0.73
2019-04-25T13:51:23.011Z,0.80
2019-04-25T13:53:52.116Z,0.80
2019-04-25T13:56:20.730Z,0.93
2019-04-25T13:58:49.362Z,0.73
2019-04-25T14:01:20.267Z,0.83
2019-04-25T14:03:49.624Z,0.77
2019-04-25T14:06:18.244Z,0.93
2019-04-25T14:08:46.930Z,0.77
2019-04-25T14:11:16.819Z,0.83
2019-04-25T14:13:45.658Z,0.75
2019-04-25T14:16:22.575Z,0.60
2019-04-25T14:19:10.061Z,0.83
2019-04-25T14:21:39.208Z,0.70
2019-04-25T14:24:19.675Z,0.70
2019-04-25T14:26:37.994Z,0.97
2019-04-25T14:29:06.592Z,0.80
2019-04-25T14:31:44.877Z,1.13
2019-04-25T14:34:05.690Z,0.80
2019-04-25T14:36:34.592Z,0.90
2019-04-25T14:39:03.299Z,1.07
2019-04-25T14:41:32.371Z,0.77
2019-04-25T14:44:02.059Z,0.70
2019-04-25T14:46:30.723Z,0.90
2019-04-25T14:48:59.290Z,1.00
2019-04-25T14:51:28.182Z,0.90
2019-04-25T14:53:57.992Z,1.00
2019-04-25T14:56:40.161Z,0.90
2019-04-25T14:59:09.321Z,0.90
2019-04-25T15:01:45.029Z,0.80
2019-04-25T15:04:08.526Z,0.90
2019-04-25T15:06:37.318Z,0.87
2019-04-25T15:09:07.817Z,0.97
2019-04-25T15:11:36.545Z,0.90
2019-04-25T15:14:05.325Z,1.00
2019-04-25T15:16:34.007Z,0.80
2019-04-25T15:19:02.752Z,1.00
2019-04-25T15:21:31.889Z,1.00
2019-04-25T15:24:00.628Z,1.00
2019-04-25T15:26:29.217Z,1.23
2019-04-25T15:28:57.895Z,1.07
2019-04-25T15:31:28.043Z,1.00
2019-04-25T15:33:58.511Z,1.00
2019-04-25T15:36:37.743Z,0.70
2019-04-25T15:39:26.085Z,0.90
2019-04-25T15:41:56.460Z,0.80
2019-04-25T15:44:43.519Z,1.17
2019-04-25T15:47:13.816Z,0.70
2019-04-25T15:49:42.927Z,1.37
2019-04-25T15:52:11.926Z,1.00
2019-04-25T15:54:40.517Z,1.10
2019-04-25T15:57:09.549Z,0.97
2019-04-25T15:59:38.201Z,1.00
2019-04-25T16:02:08.616Z,1.00
2019-04-25T16:04:37.426Z,1.30
2019-04-25T16:07:06.299Z,1.40
2019-04-25T16:09:34.950Z,1.23
2019-04-25T16:12:03.670Z,1.03
2019-04-25T16:14:33.332Z,0.90
2019-04-25T16:17:02.037Z,1.30
2019-04-25T16:19:31.535Z,1.97
2019-04-25T16:22:00.305Z,1.00
2019-04-25T16:24:30.246Z,1.00
2019-04-25T16:26:59.014Z,1.10
2019-04-25T16:29:27.763Z,1.10
2019-04-25T16:31:58.393Z,1.00
2019-04-25T16:34:27.054Z,1.20
2019-04-25T16:36:55.787Z,1.27
2019-04-25T16:39:26.322Z,1.30
2019-04-25T16:41:55.070Z,1.47
2019-04-25T16:44:23.834Z,1.20
2019-04-25T16:46:52.672Z,1.23
2019-04-25T16:49:21.608Z,1.07
2019-04-25T16:51:50.322Z,1.00
2019-04-25T16:54:19.023Z,1.40
2019-04-25T16:56:47.947Z,1.40
2019-04-25T16:59:16.557Z,1.30
2019-04-25T17:01:45.376Z,1.60
2019-04-25T17:04:14.100Z,1.00
2019-04-25T17:06:42.772Z,1.27
2019-04-25T17:09:11.411Z,1.73
2019-04-25T17:11:41.827Z,1.13
2019-04-25T17:14:21.203Z,1.30
2019-04-25T17:17:03.729Z,1.20
2019-04-25T17:19:43.085Z,1.50
2019-04-25T17:22:11.773Z,1.60
2019-04-25T17:24:41.225Z,1.30
2019-04-25T17:27:10.879Z,1.50
2019-04-25T17:29:40.104Z,1.50
2019-04-25T17:32:12.293Z,1.83
2019-04-25T17:34:51.465Z,1.50
2019-04-25T17:37:27.535Z,1.40
2019-04-25T17:40:04.056Z,1.90
2019-04-25T17:42:33.602Z,1.57
2019-04-25T17:45:05.170Z,1.30
2019-04-25T17:47:34.581Z,1.80
2019-04-25T17:50:09.363Z,1.90
2019-04-25T17:52:38.293Z,2.00
2019-04-25T17:55:08.278Z,1.73
2019-04-25T17:57:37.851Z,1.83
2019-04-25T18:00:10.177Z,2.20
2019-04-25T18:02:39.168Z,1.63
2019-04-25T18:05:07.916Z,2.17
2019-04-25T18:07:36.521Z,2.00
2019-04-25T18:10:06.601Z,1.60
2019-04-25T18:12:35.526Z,1.87
2019-04-25T18:15:08.932Z,2.73
2019-04-25T18:17:38.082Z,1.90
2019-04-25T18:20:12.278Z,1.70
2019-04-25T18:22:48.303Z,2.27
2019-04-25T18:25:36.945Z,2.20
2019-04-25T18:28:07.146Z,2.10
2019-04-25T18:30:36.928Z,1.90
2019-04-25T18:33:22.268Z,2.07
2019-04-25T18:35:52.531Z,1.73
2019-04-25T18:38:38.040Z,2.27
2019-04-25T18:41:11.898Z,1.90
2019-04-25T18:43:48.029Z,1.50
2019-04-25T18:46:24.161Z,1.70
2019-04-25T18:48:52.969Z,1.60
2019-04-25T18:51:21.624Z,1.80
2019-04-25T18:53:57.622Z,2.00
2019-04-25T18:56:28.110Z,1.60
2019-04-25T18:59:01.157Z,1.73
2019-04-25T19:01:38.149Z,1.73
2019-04-25T19:04:26.721Z,1.87
2019-04-25T19:06:58.186Z,2.10
2019-04-25T19:09:25.951Z,2.10
2019-04-25T19:11:54.609Z,1.93
2019-04-25T19:14:23.264Z,1.97
2019-04-25T19:16:52.124Z,2.00
2019-04-25T19:19:21.063Z,1.83
2019-04-25T19:21:50.186Z,1.47
2019-04-25T19:24:18.823Z,1.43
2019-04-25T19:26:47.926Z,1.80
2019-04-25T19:29:16.663Z,1.80
2019-04-25T19:31:46.255Z,1.60
2019-04-25T19:34:14.975Z,1.30
2019-04-25T19:36:43.668Z,1.50
2019-04-25T19:39:14.439Z,1.40
2019-04-25T19:41:45.021Z,1.50
2019-04-25T19:44:18.828Z,1.40
2019-04-25T19:46:49.298Z,1.57
2019-04-25T19:49:17.959Z,1.60
2019-04-25T19:51:47.261Z,1.37
2019-04-25T19:54:15.866Z,1.50
2019-04-25T19:56:45.334Z,1.60
2019-04-25T19:59:13.975Z,1.60
2019-04-25T20:01:42.766Z,1.40
2019-04-25T20:04:24.811Z,1.47
2019-04-25T20:07:11.378Z,1.43
2019-04-25T20:09:51.082Z,1.67
2019-04-25T20:12:21.476Z,1.20
2019-04-25T20:14:50.093Z,1.00
2019-04-25T20:17:18.980Z,1.27
2019-04-25T20:19:47.720Z,1.47
2019-04-25T20:22:16.366Z,1.37
2019-04-25T20:24:46.230Z,1.10
2019-04-25T20:27:14.864Z,1.20
2019-04-25T20:29:44.146Z,1.50
2019-04-25T20:32:13.749Z,1.30
2019-04-25T20:34:42.418Z,1.60
2019-04-25T20:37:11.041Z,1.50
2019-04-25T20:39:39.607Z,1.43
2019-04-25T20:42:08.274Z,1.60
2019-04-25T20:44:36.955Z,1.40
2019-04-25T20:47:05.633Z,1.40
2019-04-25T20:49:34.208Z,1.30
2019-04-25T20:52:02.758Z,1.37
2019-04-25T20:54:31.414Z,1.37
2019-04-25T20:57:01.612Z,1.77
2019-04-25T20:59:30.264Z,1.00
2019-04-25T21:01:59.344Z,1.37
2019-04-25T21:04:42.676Z,1.50
2019-04-25T21:07:11.360Z,1.43
2019-04-25T21:09:40.444Z,1.40
2019-04-25T21:12:09.353Z,1.30
2019-04-25T21:14:52.722Z,1.30
2019-04-25T21:17:25.865Z,1.17
2019-04-25T21:19:56.324Z,1.43
2019-04-25T21:22:24.867Z,1.20
2019-04-25T21:24:53.827Z,1.93
2019-04-25T21:27:22.500Z,1.30
2019-04-25T21:29:52.016Z,1.37
2019-04-25T21:32:22.068Z,1.33
2019-04-25T21:34:50.942Z,1.47
2019-04-25T21:37:20.664Z,1.60
2019-04-25T21:39:53.815Z,1.67
2019-04-25T21:42:34.459Z,1.30
2019-04-25T21:45:03.498Z,1.43
2019-04-25T21:47:32.063Z,1.40
2019-04-25T21:50:02.807Z,1.70
2019-04-25T21:52:33.547Z,1.50
2019-04-25T21:55:01.910Z,1.27
2019-04-25T21:57:30.863Z,1.40
2019-04-25T22:00:06.107Z,1.20
2019-04-25T22:02:30.487Z,1.20
2019-04-25T22:04:59.574Z,1.30
2019-04-25T22:07:31.728Z,1.40
2019-04-25T22:10:01.631Z,1.20
2019-04-25T22:12:30.799Z,1.27
2019-04-25T22:14:59.513Z,1.57
2019-04-25T22:17:28.247Z,1.43
2019-04-25T22:19:57.862Z,1.20
2019-04-25T22:22:27.047Z,1.30
2019-04-25T22:24:56.179Z,1.23
2019-04-25T22:27:27.429Z,1.30
2019-04-25T22:29:58.727Z,0.90
2019-04-25T22:32:32.516Z,1.20
2019-04-25T22:35:14.861Z,1.20
2019-04-25T22:37:43.560Z,1.40
2019-04-25T22:40:12.776Z,1.47
2019-04-25T22:42:41.436Z,1.47
2019-04-25T22:45:10.272Z,1.50
2019-04-25T22:47:38.859Z,1.30
2019-04-25T22:50:07.544Z,1.20
2019-04-25T22:52:37.250Z,1.10
2019-04-25T22:55:06.639Z,1.10
2019-04-25T22:57:35.493Z,1.50
2019-04-25T23:00:08.898Z,1.00
2019-04-25T23:02:39.394Z,1.30
2019-04-25T23:05:14.400Z,1.27
2019-04-25T23:07:40.176Z,1.23
2019-04-25T23:10:09.354Z,1.43
2019-04-25T23:12:38.783Z,1.10
2019-04-25T23:15:08.784Z,1.23
2019-04-25T23:17:37.387Z,1.13
2019-04-25T23:20:07.499Z,1.40
2019-04-25T23:22:36.186Z,1.07
2019-04-25T23:25:17.712Z,1.10
2019-04-25T23:27:53.692Z,0.87
2019-04-25T23:30:24.140Z,0.77
2019-04-25T23:32:52.775Z,1.57
2019-04-25T23:35:29.532Z,0.80
2019-04-25T23:37:51.672Z,0.87
2019-04-25T23:40:20.229Z,1.10
2019-04-25T23:42:48.810Z,1.00
2019-04-25T23:45:17.400Z,0.80
2019-04-25T23:47:46.098Z,0.90
2019-04-25T23:50:15.476Z,1.20
2019-04-25T23:52:44.134Z,0.87
2019-04-25T23:55:13.115Z,1.10
2019-04-25T23:57:41.708Z,0.80
